sensor_id;sensor_type;location;lat;lon;timestamp;pressure;altitude;pressure_sealevel;temperature;humidity
71107;BME280;58763;47.982;11.516;2023-04-04T00:01:24;94704.16;;;-0.60;67.99
71107;BME280;58763;47.982;11.516;2023-04-04T00:03:50;94690.47;;;-0.77;67.48
71107;BME280;58763;47.982;11.516;2023-04-04T00:06:17;94697.03;;;-0.66;68.10
71107;BME280;58763;47.982;11.516;2023-04-04T00:08:43;94693.75;;;-0.61;68.09
71107;BME280;58763;47.982;11.516;2023-04-04T00:11:09;94698.66;;;-0.52;68.09
71107;BME280;58763;47.982;11.516;2023-04-04T00:13:34;94686.59;;;-0.61;67.58
71107;BME280;58763;47.982;11.516;2023-04-04T00:16:00;94683.34;;;-0.56;67.50
71107;BME280;58763;47.982;11.516;2023-04-04T00:18:26;94676.78;;;-0.67;67.33
71107;BME280;58763;47.982;11.516;2023-04-04T00:20:52;94687.00;;;-0.57;67.72
71107;BME280;58763;47.982;11.516;2023-04-04T00:23:17;94680.06;;;-0.52;67.57
71107;BME280;58763;47.982;11.516;2023-04-04T00:25:48;94685.38;;;-0.45;67.05
71107;BME280;58763;47.982;11.516;2023-04-04T00:28:14;94672.50;;;-0.61;67.14
71107;BME280;58763;47.982;11.516;2023-04-04T00:30:40;94672.50;;;-0.68;67.29
71107;BME280;58763;47.982;11.516;2023-04-04T00:33:05;94672.28;;;-0.60;67.79
71107;BME280;58763;47.982;11.516;2023-04-04T00:35:31;94664.53;;;-0.75;67.97
71107;BME280;58763;47.982;11.516;2023-04-04T00:37:57;94661.25;;;-0.77;67.69
71107;BME280;58763;47.982;11.516;2023-04-04T00:40:22;94660.47;;;-0.77;67.59
71107;BME280;58763;47.982;11.516;2023-04-04T00:42:48;94658.41;;;-0.75;67.29
71107;BME280;58763;47.982;11.516;2023-04-04T00:45:14;94658.59;;;-0.77;67.15
71107;BME280;58763;47.982;11.516;2023-04-04T00:47:41;94660.66;;;-0.79;67.47
71107;BME280;58763;47.982;11.516;2023-04-04T00:50:07;94654.75;;;-0.87;67.04
71107;BME280;58763;47.982;11.516;2023-04-04T00:52:33;94644.31;;;-0.95;67.95
71107;BME280;58763;47.982;11.516;2023-04-04T00:54:59;94651.88;;;-0.86;67.85
71107;BME280;58763;47.982;11.516;2023-04-04T00:57:26;94647.38;;;-0.85;67.50
71107;BME280;58763;47.982;11.516;2023-04-04T00:59:53;94644.72;;;-0.79;66.97
71107;BME280;58763;47.982;11.516;2023-04-04T01:02:18;94643.69;;;-0.64;67.08
71107;BME280;58763;47.982;11.516;2023-04-04T01:04:44;94646.75;;;-0.68;66.99
71107;BME280;58763;47.982;11.516;2023-04-04T01:07:10;94642.66;;;-0.70;66.91
71107;BME280;58763;47.982;11.516;2023-04-04T01:09:36;94643.69;;;-0.91;67.93
71107;BME280;58763;47.982;11.516;2023-04-04T01:12:01;94639.63;;;-0.87;67.73
71107;BME280;58763;47.982;11.516;2023-04-04T01:14:27;94641.44;;;-0.74;67.69
71107;BME280;58763;47.982;11.516;2023-04-04T01:16:53;94634.72;;;-0.90;67.47
71107;BME280;58763;47.982;11.516;2023-04-04T01:19:25;94637.19;;;-1.08;68.25
71107;BME280;58763;47.982;11.516;2023-04-04T01:21:55;94635.13;;;-0.93;67.96
71107;BME280;58763;47.982;11.516;2023-04-04T01:24:22;94628.41;;;-1.02;68.11
71107;BME280;58763;47.982;11.516;2023-04-04T01:26:49;94629.44;;;-0.96;68.37
71107;BME280;58763;47.982;11.516;2023-04-04T01:29:15;94623.28;;;-0.90;67.69
71107;BME280;58763;47.982;11.516;2023-04-04T01:31:46;94624.72;;;-0.81;67.14
71107;BME280;58763;47.982;11.516;2023-04-04T01:34:23;94623.91;;;-0.68;67.10
71107;BME280;58763;47.982;11.516;2023-04-04T01:40:16;94625.53;;;-0.81;67.77
71107;BME280;58763;47.982;11.516;2023-04-04T01:42:44;94623.50;;;-0.98;68.02
71107;BME280;58763;47.982;11.516;2023-04-04T01:45:12;94619.81;;;-0.91;67.68
71107;BME280;58763;47.982;11.516;2023-04-04T01:47:39;94621.88;;;-1.12;67.71
71107;BME280;58763;47.982;11.516;2023-04-04T01:50:07;94612.88;;;-1.18;68.34
71107;BME280;58763;47.982;11.516;2023-04-04T01:52:33;94615.91;;;-1.14;68.67
71107;BME280;58763;47.982;11.516;2023-04-04T01:54:59;94615.13;;;-1.02;68.49
71107;BME280;58763;47.982;11.516;2023-04-04T01:57:24;94619.41;;;-0.88;67.45
71107;BME280;58763;47.982;11.516;2023-04-04T01:59:50;94625.53;;;-1.00;68.13
71107;BME280;58763;47.982;11.516;2023-04-04T02:02:16;94619.00;;;-1.11;68.06
71107;BME280;58763;47.982;11.516;2023-04-04T02:04:41;94616.97;;;-1.09;68.47
71107;BME280;58763;47.982;11.516;2023-04-04T02:07:08;94612.47;;;-1.21;68.38
71107;BME280;58763;47.982;11.516;2023-04-04T02:09:34;94620.63;;;-1.16;68.74
71107;BME280;58763;47.982;11.516;2023-04-04T02:11:59;94603.69;;;-1.15;68.44
71107;BME280;58763;47.982;11.516;2023-04-04T02:14:26;94613.28;;;-1.14;68.80
71107;BME280;58763;47.982;11.516;2023-04-04T02:16:53;94617.78;;;-1.15;68.38
71107;BME280;58763;47.982;11.516;2023-04-04T02:19:18;94614.31;;;-1.15;68.36
71107;BME280;58763;47.982;11.516;2023-04-04T02:21:44;94615.53;;;-1.05;68.38
71107;BME280;58763;47.982;11.516;2023-04-04T02:24:10;94611.66;;;-1.15;68.75
71107;BME280;58763;47.982;11.516;2023-04-04T02:26:35;94612.47;;;-1.15;68.36
71107;BME280;58763;47.982;11.516;2023-04-04T02:29:01;94611.44;;;-1.14;68.51
71107;BME280;58763;47.982;11.516;2023-04-04T02:31:27;94614.09;;;-1.07;68.08
71107;BME280;58763;47.982;11.516;2023-04-04T02:33:53;94614.31;;;-1.09;68.21
71107;BME280;58763;47.982;11.516;2023-04-04T02:36:20;94611.03;;;-1.17;68.46
71107;BME280;58763;47.982;11.516;2023-04-04T02:38:46;94616.75;;;-1.07;67.97
71107;BME280;58763;47.982;11.516;2023-04-04T02:41:11;94606.78;;;-1.05;67.83
71107;BME280;58763;47.982;11.516;2023-04-04T02:43:37;94602.69;;;-1.01;67.91
71107;BME280;58763;47.982;11.516;2023-04-04T02:46:03;94604.09;;;-0.99;67.76
71107;BME280;58763;47.982;11.516;2023-04-04T02:48:29;94601.25;;;-1.04;67.72
71107;BME280;58763;47.982;11.516;2023-04-04T02:50:54;94595.75;;;-0.96;67.15
71107;BME280;58763;47.982;11.516;2023-04-04T02:53:20;94595.72;;;-1.09;67.60
71107;BME280;58763;47.982;11.516;2023-04-04T02:55:45;94606.75;;;-1.12;67.39
71107;BME280;58763;47.982;11.516;2023-04-04T02:58:11;94598.56;;;-1.23;67.69
71107;BME280;58763;47.982;11.516;2023-04-04T03:00:37;94601.03;;;-1.22;67.81
71107;BME280;58763;47.982;11.516;2023-04-04T03:03:03;94598.19;;;-1.20;67.48
71107;BME280;58763;47.982;11.516;2023-04-04T03:05:29;94594.09;;;-1.23;67.90
71107;BME280;58763;47.982;11.516;2023-04-04T03:07:56;94595.94;;;-1.30;67.75
71107;BME280;58763;47.982;11.516;2023-04-04T03:10:23;94597.34;;;-1.34;68.16
71107;BME280;58763;47.982;11.516;2023-04-04T03:12:49;94603.88;;;-1.36;68.59
71107;BME280;58763;47.982;11.516;2023-04-04T03:15:15;94594.91;;;-1.35;68.66
71107;BME280;58763;47.982;11.516;2023-04-04T03:17:40;94589.19;;;-1.26;68.14
71107;BME280;58763;47.982;11.516;2023-04-04T03:20:07;94604.72;;;-1.29;68.43
71107;BME280;58763;47.982;11.516;2023-04-04T03:22:33;94594.91;;;-1.29;67.99
71107;BME280;58763;47.982;11.516;2023-04-04T03:25:00;94597.75;;;-1.30;67.78
71107;BME280;58763;47.982;11.516;2023-04-04T03:27:26;94590.63;;;-1.36;68.14
71107;BME280;58763;47.982;11.516;2023-04-04T03:29:51;94589.63;;;-1.35;68.00
71107;BME280;58763;47.982;11.516;2023-04-04T03:32:17;94591.84;;;-1.39;68.12
71107;BME280;58763;47.982;11.516;2023-04-04T03:34:43;94592.06;;;-1.34;68.43
71107;BME280;58763;47.982;11.516;2023-04-04T03:37:10;94586.34;;;-1.31;67.91
71107;BME280;58763;47.982;11.516;2023-04-04T03:39:35;94594.88;;;-1.42;68.45
71107;BME280;58763;47.982;11.516;2023-04-04T03:42:01;94595.50;;;-1.40;68.22
71107;BME280;58763;47.982;11.516;2023-04-04T03:44:26;94593.50;;;-1.38;68.26
71107;BME280;58763;47.982;11.516;2023-04-04T03:46:52;94594.09;;;-1.43;68.51
71107;BME280;58763;47.982;11.516;2023-04-04T03:49:17;94597.31;;;-1.54;68.73
71107;BME280;58763;47.982;11.516;2023-04-04T03:51:43;94602.63;;;-1.54;69.05
71107;BME280;58763;47.982;11.516;2023-04-04T03:54:09;94597.31;;;-1.54;69.07
71107;BME280;58763;47.982;11.516;2023-04-04T03:56:35;94603.84;;;-1.56;68.78
71107;BME280;58763;47.982;11.516;2023-04-04T03:59:01;94605.72;;;-1.50;68.82
71107;BME280;58763;47.982;11.516;2023-04-04T04:01:26;94598.34;;;-1.55;68.88
71107;BME280;58763;47.982;11.516;2023-04-04T04:03:52;94606.91;;;-1.59;68.46
71107;BME280;58763;47.982;11.516;2023-04-04T04:06:17;94606.69;;;-1.64;68.72
71107;BME280;58763;47.982;11.516;2023-04-04T04:08:43;94614.06;;;-1.53;69.14
71107;BME280;58763;47.982;11.516;2023-04-04T04:11:09;94610.78;;;-1.42;68.16
71107;BME280;58763;47.982;11.516;2023-04-04T04:13:34;94611.63;;;-1.48;67.95
71107;BME280;58763;47.982;11.516;2023-04-04T04:16:03;94617.91;;;-1.56;68.37
71107;BME280;58763;47.982;11.516;2023-04-04T04:18:29;94612.22;;;-1.59;68.44
71107;BME280;58763;47.982;11.516;2023-04-04T04:20:58;94610.78;;;-1.49;68.19
71107;BME280;58763;47.982;11.516;2023-04-04T04:23:24;94614.44;;;-1.56;68.57
71107;BME280;58763;47.982;11.516;2023-04-04T04:25:50;94619.13;;;-1.65;68.75
71107;BME280;58763;47.982;11.516;2023-04-04T04:28:16;94618.13;;;-1.64;69.01
71107;BME280;58763;47.982;11.516;2023-04-04T04:30:41;94615.88;;;-1.60;68.84
71107;BME280;58763;47.982;11.516;2023-04-04T04:33:07;94619.72;;;-1.69;68.85
71107;BME280;58763;47.982;11.516;2023-04-04T04:35:35;94619.34;;;-1.66;68.94
71107;BME280;58763;47.982;11.516;2023-04-04T04:38:04;94620.56;;;-1.62;68.73
71107;BME280;58763;47.982;11.516;2023-04-04T04:40:33;94626.00;;;-1.83;69.07
71107;BME280;58763;47.982;11.516;2023-04-04T04:42:59;94625.00;;;-1.82;69.25
71107;BME280;58763;47.982;11.516;2023-04-04T04:45:25;94620.53;;;-1.75;68.88
71107;BME280;58763;47.982;11.516;2023-04-04T04:47:50;94618.91;;;-1.76;69.47
71107;BME280;58763;47.982;11.516;2023-04-04T04:50:16;94625.41;;;-1.85;69.37
71107;BME280;58763;47.982;11.516;2023-04-04T04:52:42;94632.13;;;-1.83;69.61
71107;BME280;58763;47.982;11.516;2023-04-04T04:55:09;94626.38;;;-1.93;69.67
71107;BME280;58763;47.982;11.516;2023-04-04T04:57:36;94626.97;;;-1.97;69.86
71107;BME280;58763;47.982;11.516;2023-04-04T05:00:03;94618.88;;;-1.89;69.65
71107;BME280;58763;47.982;11.516;2023-04-04T05:02:29;94631.94;;;-1.75;74.60
71107;BME280;58763;47.982;11.516;2023-04-04T05:04:55;94636.47;;;-1.69;71.66
71107;BME280;58763;47.982;11.516;2023-04-04T05:07:21;94632.19;;;-1.63;70.04
71107;BME280;58763;47.982;11.516;2023-04-04T05:09:46;94632.81;;;-1.61;69.49
71107;BME280;58763;47.982;11.516;2023-04-04T05:12:12;94639.34;;;-1.57;68.69
71107;BME280;58763;47.982;11.516;2023-04-04T05:14:39;94635.47;;;-1.61;68.96
71107;BME280;58763;47.982;11.516;2023-04-04T05:17:04;94638.06;;;-1.68;68.96
71107;BME280;58763;47.982;11.516;2023-04-04T05:19:30;94636.03;;;-1.72;69.38
71107;BME280;58763;47.982;11.516;2023-04-04T05:21:56;94649.47;;;-1.80;69.53
71107;BME280;58763;47.982;11.516;2023-04-04T05:24:22;94643.34;;;-1.81;69.25
71107;BME280;58763;47.982;11.516;2023-04-04T05:26:48;94643.75;;;-1.84;69.84
71107;BME280;58763;47.982;11.516;2023-04-04T05:29:14;94642.97;;;-1.78;69.37
71107;BME280;58763;47.982;11.516;2023-04-04T05:31:39;94651.13;;;-1.73;69.31
71107;BME280;58763;47.982;11.516;2023-04-04T05:34:05;94647.47;;;-1.72;69.43
71107;BME280;58763;47.982;11.516;2023-04-04T05:36:33;94643.75;;;-1.77;69.75
71107;BME280;58763;47.982;11.516;2023-04-04T05:38:59;94653.16;;;-1.75;69.86
71107;BME280;58763;47.982;11.516;2023-04-04T05:41:25;94652.72;;;-1.85;70.64
71107;BME280;58763;47.982;11.516;2023-04-04T05:43:51;94645.38;;;-1.83;71.20
71107;BME280;58763;47.982;11.516;2023-04-04T05:46:17;94642.66;;;-1.96;71.50
71107;BME280;58763;47.982;11.516;2023-04-04T05:48:43;94643.50;;;-1.95;71.20
71107;BME280;58763;47.982;11.516;2023-04-04T05:51:08;94646.97;;;-1.95;71.58
71107;BME280;58763;47.982;11.516;2023-04-04T05:53:34;94653.66;;;-2.05;71.65
71107;BME280;58763;47.982;11.516;2023-04-04T05:55:59;94661.91;;;-2.22;72.52
71107;BME280;58763;47.982;11.516;2023-04-04T05:58:25;94656.56;;;-2.35;73.13
71107;BME280;58763;47.982;11.516;2023-04-04T06:00:51;94655.06;;;-2.44;74.01
71107;BME280;58763;47.982;11.516;2023-04-04T06:03:17;94654.03;;;-2.49;74.63
71107;BME280;58763;47.982;11.516;2023-04-04T06:05:43;94652.91;;;-2.34;73.94
71107;BME280;58763;47.982;11.516;2023-04-04T06:08:09;94659.22;;;-2.28;73.94
71107;BME280;58763;47.982;11.516;2023-04-04T06:10:35;94662.47;;;-2.33;73.44
71107;BME280;58763;47.982;11.516;2023-04-04T06:13:00;94663.72;;;-2.29;77.45
71107;BME280;58763;47.982;11.516;2023-04-04T06:15:26;94650.94;;;-2.19;75.29
71107;BME280;58763;47.982;11.516;2023-04-04T06:17:51;94660.31;;;-2.16;73.15
71107;BME280;58763;47.982;11.516;2023-04-04T06:20:17;94655.03;;;-2.10;73.05
71107;BME280;58763;47.982;11.516;2023-04-04T06:22:45;94657.34;;;-2.00;72.89
71107;BME280;58763;47.982;11.516;2023-04-04T06:25:11;94658.31;;;-2.08;72.12
71107;BME280;58763;47.982;11.516;2023-04-04T06:27:39;94654.28;;;-2.03;71.97
71107;BME280;58763;47.982;11.516;2023-04-04T06:30:04;94658.53;;;-2.02;72.36
71107;BME280;58763;47.982;11.516;2023-04-04T06:32:30;94655.06;;;-2.03;72.67
71107;BME280;58763;47.982;11.516;2023-04-04T06:34:56;94644.31;;;-1.95;72.43
71107;BME280;58763;47.982;11.516;2023-04-04T06:37:21;94651.22;;;-2.00;72.82
71107;BME280;58763;47.982;11.516;2023-04-04T06:39:47;94651.84;;;-1.98;72.88
71107;BME280;58763;47.982;11.516;2023-04-04T06:42:12;94645.97;;;-1.87;72.42
71107;BME280;58763;47.982;11.516;2023-04-04T06:44:38;94650.91;;;-1.78;72.08
71107;BME280;58763;47.982;11.516;2023-04-04T06:47:03;94643.97;;;-1.79;72.69
71107;BME280;58763;47.982;11.516;2023-04-04T06:49:29;94651.31;;;-1.74;71.82
71107;BME280;58763;47.982;11.516;2023-04-04T06:51:54;94644.19;;;-1.67;72.08
71107;BME280;58763;47.982;11.516;2023-04-04T06:54:20;94645.03;;;-1.67;71.46
71107;BME280;58763;47.982;11.516;2023-04-04T06:56:47;94647.06;;;-1.62;71.47
71107;BME280;58763;47.982;11.516;2023-04-04T06:59:14;94645.47;;;-1.50;71.02
71107;BME280;58763;47.982;11.516;2023-04-04T07:01:39;94641.63;;;-1.41;70.27
71107;BME280;58763;47.982;11.516;2023-04-04T07:04:07;94637.13;;;-1.47;70.28
71107;BME280;58763;47.982;11.516;2023-04-04T07:06:32;94644.03;;;-1.53;68.33
71107;BME280;58763;47.982;11.516;2023-04-04T07:08:58;94641.84;;;-1.36;69.18
71107;BME280;58763;47.982;11.516;2023-04-04T07:11:23;94633.06;;;-1.30;68.78
71107;BME280;58763;47.982;11.516;2023-04-04T07:13:49;94639.41;;;-1.18;67.03
71107;BME280;58763;47.982;11.516;2023-04-04T07:16:15;94640.22;;;-1.17;65.88
71107;BME280;58763;47.982;11.516;2023-04-04T07:18:40;94641.06;;;-1.04;66.78
71107;BME280;58763;47.982;11.516;2023-04-04T07:21:06;94642.91;;;-0.85;66.58
71107;BME280;58763;47.982;11.516;2023-04-04T07:23:31;94635.53;;;-0.70;63.76
71107;BME280;58763;47.982;11.516;2023-04-04T07:25:57;94639.44;;;-0.65;63.23
71107;BME280;58763;47.982;11.516;2023-04-04T07:28:22;94636.97;;;-0.74;62.70
71107;BME280;58763;47.982;11.516;2023-04-04T07:30:48;94639.63;;;-0.80;63.60
71107;BME280;58763;47.982;11.516;2023-04-04T07:33:14;94643.28;;;-0.75;63.54
71107;BME280;58763;47.982;11.516;2023-04-04T07:35:39;94648.00;;;-0.77;63.30
71107;BME280;58763;47.982;11.516;2023-04-04T07:38:05;94644.72;;;-0.85;62.50
71107;BME280;58763;47.982;11.516;2023-04-04T07:40:31;94647.59;;;-0.87;62.09
71107;BME280;58763;47.982;11.516;2023-04-04T07:42:56;94639.63;;;-0.80;61.03
71107;BME280;58763;47.982;11.516;2023-04-04T07:45:22;94646.75;;;-0.68;61.24
71107;BME280;58763;47.982;11.516;2023-04-04T07:47:47;94641.44;;;-0.68;61.49
71107;BME280;58763;47.982;11.516;2023-04-04T07:50:14;94643.69;;;-0.64;60.05
71107;BME280;58763;47.982;11.516;2023-04-04T07:52:40;94638.38;;;-0.58;59.76
71107;BME280;58763;47.982;11.516;2023-04-04T07:55:07;94637.34;;;-0.50;59.47
71107;BME280;58763;47.982;11.516;2023-04-04T07:57:36;94644.06;;;-0.41;59.11
71107;BME280;58763;47.982;11.516;2023-04-04T08:00:05;94637.75;;;-0.40;59.54
71107;BME280;58763;47.982;11.516;2023-04-04T08:02:35;94635.25;;;-0.22;58.91
71107;BME280;58763;47.982;11.516;2023-04-04T08:05:00;94639.88;;;0.02;58.43
71107;BME280;58763;47.982;11.516;2023-04-04T08:07:27;94635.75;;;0.13;56.64
71107;BME280;58763;47.982;11.516;2023-04-04T08:09:53;94633.50;;;0.16;55.41
71107;BME280;58763;47.982;11.516;2023-04-04T08:12:18;94629.41;;;0.07;57.35
71107;BME280;58763;47.982;11.516;2023-04-04T08:14:44;94633.50;;;0.10;57.52
71107;BME280;58763;47.982;11.516;2023-04-04T08:17:09;94631.66;;;0.10;57.03
71107;BME280;58763;47.982;11.516;2023-04-04T08:19:36;94633.72;;;0.08;56.40
71107;BME280;58763;47.982;11.516;2023-04-04T08:22:01;94637.81;;;0.04;53.98
71107;BME280;58763;47.982;11.516;2023-04-04T08:24:27;94640.88;;;0.08;54.04
71107;BME280;58763;47.982;11.516;2023-04-04T08:26:54;94636.81;;;-0.02;55.84
71107;BME280;58763;47.982;11.516;2023-04-04T08:29:20;94634.72;;;0.14;55.33
71107;BME280;58763;47.982;11.516;2023-04-04T08:31:46;94636.31;;;0.21;55.52
71107;BME280;58763;47.982;11.516;2023-04-04T08:34:12;94636.50;;;0.26;53.73
71107;BME280;58763;47.982;11.516;2023-04-04T08:36:37;94633.88;;;0.20;55.12
71107;BME280;58763;47.982;11.516;2023-04-04T08:39:03;94644.88;;;0.30;54.80
71107;BME280;58763;47.982;11.516;2023-04-04T08:41:29;94639.34;;;0.31;55.74
71107;BME280;58763;47.982;11.516;2023-04-04T08:44:00;94635.81;;;0.44;55.84
71107;BME280;58763;47.982;11.516;2023-04-04T08:46:27;94638.16;;;0.58;55.64
71107;BME280;58763;47.982;11.516;2023-04-04T08:48:55;94642.28;;;0.54;51.79
71107;BME280;58763;47.982;11.516;2023-04-04T08:51:23;94642.94;;;0.50;52.99
71107;BME280;58763;47.982;11.516;2023-04-04T08:53:51;94651.66;;;0.63;52.82
71107;BME280;58763;47.982;11.516;2023-04-04T08:56:17;94655.22;;;0.51;52.49
71107;BME280;58763;47.982;11.516;2023-04-04T08:58:43;94644.03;;;0.74;52.29
71107;BME280;58763;47.982;11.516;2023-04-04T09:01:09;94639.63;;;0.92;51.19
71107;BME280;58763;47.982;11.516;2023-04-04T09:03:35;94635.94;;;0.93;51.01
71107;BME280;58763;47.982;11.516;2023-04-04T09:06:03;94650.50;;;0.91;52.10
71107;BME280;58763;47.982;11.516;2023-04-04T09:08:29;94651.09;;;0.93;52.67
71107;BME280;58763;47.982;11.516;2023-04-04T09:10:55;94646.19;;;0.90;51.75
71107;BME280;58763;47.982;11.516;2023-04-04T09:13:21;94642.16;;;1.05;53.14
71107;BME280;58763;47.982;11.516;2023-04-04T09:15:50;94638.47;;;1.37;52.31
71107;BME280;58763;47.982;11.516;2023-04-04T09:18:16;94643.25;;;1.47;50.37
71107;BME280;58763;47.982;11.516;2023-04-04T09:20:46;94633.97;;;1.56;49.41
71107;BME280;58763;47.982;11.516;2023-04-04T09:23:17;94643.53;;;1.64;49.87
71107;BME280;58763;47.982;11.516;2023-04-04T09:25:52;94638.84;;;1.84;51.67
71107;BME280;58763;47.982;11.516;2023-04-04T09:28:19;94647.28;;;1.99;50.95
71107;BME280;58763;47.982;11.516;2023-04-04T09:30:49;94642.91;;;1.86;49.27
71107;BME280;58763;47.982;11.516;2023-04-04T09:33:16;94644.84;;;1.79;49.34
71107;BME280;58763;47.982;11.516;2023-04-04T09:36:01;94649.28;;;2.03;51.97
71107;BME280;58763;47.982;11.516;2023-04-04T09:38:29;94648.53;;;2.33;53.50
71107;BME280;58763;47.982;11.516;2023-04-04T09:40:58;94647.44;;;2.40;49.79
71107;BME280;58763;47.982;11.516;2023-04-04T09:43:23;94640.06;;;2.54;48.02
71107;BME280;58763;47.982;11.516;2023-04-04T09:45:50;94654.50;;;2.64;49.96
71107;BME280;58763;47.982;11.516;2023-04-04T09:48:30;94649.41;;;2.63;48.20
71107;BME280;58763;47.982;11.516;2023-04-04T09:50:57;94655.47;;;2.70;48.03
71107;BME280;58763;47.982;11.516;2023-04-04T09:53:24;94655.41;;;2.88;48.25
71107;BME280;58763;47.982;11.516;2023-04-04T09:55:51;94649.56;;;3.09;49.17
71107;BME280;58763;47.982;11.516;2023-04-04T09:58:22;94657.59;;;3.21;45.92
71107;BME280;58763;47.982;11.516;2023-04-04T10:00:51;94652.25;;;3.21;45.49
71107;BME280;58763;47.982;11.516;2023-04-04T10:03:17;94658.16;;;3.11;44.67
71107;BME280;58763;47.982;11.516;2023-04-04T10:05:46;94663.22;;;3.01;43.83
71107;BME280;58763;47.982;11.516;2023-04-04T10:13:32;94659.84;;;3.35;43.91
71107;BME280;58763;47.982;11.516;2023-04-04T10:16:00;94653.44;;;3.36;45.00
71107;BME280;58763;47.982;11.516;2023-04-04T10:18:32;94647.16;;;3.19;43.49
71107;BME280;58763;47.982;11.516;2023-04-04T10:20:59;94661.22;;;3.15;44.93
71107;BME280;58763;47.982;11.516;2023-04-04T10:23:25;94658.56;;;3.26;46.65
71107;BME280;58763;47.982;11.516;2023-04-04T10:25:53;94654.97;;;3.32;43.90
71107;BME280;58763;47.982;11.516;2023-04-04T10:28:19;94651.97;;;3.40;44.48
71107;BME280;58763;47.982;11.516;2023-04-04T10:30:51;94654.19;;;3.55;43.43
71107;BME280;58763;47.982;11.516;2023-04-04T10:33:29;94648.75;;;3.73;44.96
71107;BME280;58763;47.982;11.516;2023-04-04T10:36:00;94641.75;;;4.07;42.97
71107;BME280;58763;47.982;11.516;2023-04-04T10:38:28;94642.34;;;3.97;43.08
71107;BME280;58763;47.982;11.516;2023-04-04T10:40:58;94632.00;;;3.89;41.69
71107;BME280;58763;47.982;11.516;2023-04-04T10:43:25;94639.50;;;4.27;44.56
71107;BME280;58763;47.982;11.516;2023-04-04T10:45:51;94633.56;;;4.25;43.79
71107;BME280;58763;47.982;11.516;2023-04-04T10:48:17;94646.97;;;4.13;40.43
71107;BME280;58763;47.982;11.516;2023-04-04T10:50:45;94647.91;;;4.19;43.27
71107;BME280;58763;47.982;11.516;2023-04-04T10:53:11;94654.41;;;4.35;42.04
71107;BME280;58763;47.982;11.516;2023-04-04T10:55:37;94646.81;;;4.55;40.77
71107;BME280;58763;47.982;11.516;2023-04-04T10:58:05;94635.81;;;4.96;42.54
71107;BME280;58763;47.982;11.516;2023-04-04T11:00:32;94641.38;;;4.78;42.32
71107;BME280;58763;47.982;11.516;2023-04-04T11:03:13;94637.25;;;4.87;41.63
71107;BME280;58763;47.982;11.516;2023-04-04T11:05:39;94636.13;;;4.83;39.99
71107;BME280;58763;47.982;11.516;2023-04-04T11:08:07;94635.47;;;4.93;39.76
71107;BME280;58763;47.982;11.516;2023-04-04T11:10:38;94627.47;;;5.09;40.33
71107;BME280;58763;47.982;11.516;2023-04-04T11:13:10;94628.94;;;5.17;40.77
71107;BME280;58763;47.982;11.516;2023-04-04T11:16:04;94629.09;;;5.10;39.53
71107;BME280;58763;47.982;11.516;2023-04-04T11:21:06;94631.69;;;4.77;39.69
71107;BME280;58763;47.982;11.516;2023-04-04T11:28:57;94603.69;;;5.79;38.15
71107;BME280;58763;47.982;11.516;2023-04-04T11:31:27;94603.69;;;5.79;36.23
71107;BME280;58763;47.982;11.516;2023-04-04T11:44:18;94602.94;;;6.82;38.17
71107;BME280;58763;47.982;11.516;2023-04-04T11:46:44;94598.94;;;6.63;39.02
71107;BME280;58763;47.982;11.516;2023-04-04T11:49:13;94600.16;;;6.50;39.67
71107;BME280;58763;47.982;11.516;2023-04-04T11:51:40;94596.03;;;6.43;38.88
71107;BME280;58763;47.982;11.516;2023-04-04T11:54:13;94598.06;;;6.36;40.39
71107;BME280;58763;47.982;11.516;2023-04-04T11:56:42;94601.66;;;6.41;39.00
71107;BME280;58763;47.982;11.516;2023-04-04T11:59:16;94599.56;;;6.26;35.87
71107;BME280;58763;47.982;11.516;2023-04-04T12:01:42;94600.34;;;6.05;37.21
71107;BME280;58763;47.982;11.516;2023-04-04T12:04:09;94592.44;;;6.37;36.68
71107;BME280;58763;47.982;11.516;2023-04-04T12:06:35;94598.34;;;6.56;37.05
71107;BME280;58763;47.982;11.516;2023-04-04T12:09:02;94602.56;;;6.73;37.83
71107;BME280;58763;47.982;11.516;2023-04-04T12:11:29;94606.41;;;6.56;40.23
71107;BME280;58763;47.982;11.516;2023-04-04T12:13:56;94596.03;;;6.91;36.58
71107;BME280;58763;47.982;11.516;2023-04-04T12:16:22;94588.44;;;7.10;36.09
71107;BME280;58763;47.982;11.516;2023-04-04T12:18:48;94596.09;;;7.23;37.35
71107;BME280;58763;47.982;11.516;2023-04-04T12:21:14;94579.88;;;7.13;39.40
71107;BME280;58763;47.982;11.516;2023-04-04T12:23:40;94585.19;;;7.08;40.10
71107;BME280;58763;47.982;11.516;2023-04-04T12:26:06;94590.16;;;6.67;39.30
71107;BME280;58763;47.982;11.516;2023-04-04T12:28:34;94579.72;;;6.49;39.83
71107;BME280;58763;47.982;11.516;2023-04-04T12:31:03;94589.59;;;6.44;39.06
71107;BME280;58763;47.982;11.516;2023-04-04T12:33:31;94588.50;;;6.45;40.27
71107;BME280;58763;47.982;11.516;2023-04-04T12:36:01;94583.97;;;6.67;39.90
71107;BME280;58763;47.982;11.516;2023-04-04T12:38:32;94583.22;;;6.50;39.15
71107;BME280;58763;47.982;11.516;2023-04-04T12:40:59;94580.72;;;6.65;38.74
71107;BME280;58763;47.982;11.516;2023-04-04T12:43:28;94577.63;;;6.78;38.91
71107;BME280;58763;47.982;11.516;2023-04-04T12:45:56;94577.06;;;7.03;38.59
71107;BME280;58763;47.982;11.516;2023-04-04T12:48:28;94581.97;;;6.84;38.05
71107;BME280;58763;47.982;11.516;2023-04-04T12:50:59;94586.13;;;6.70;37.01
71107;BME280;58763;47.982;11.516;2023-04-04T12:53:26;94580.31;;;6.78;38.32
71107;BME280;58763;47.982;11.516;2023-04-04T12:55:54;94578.19;;;6.80;38.98
71107;BME280;58763;47.982;11.516;2023-04-04T12:58:21;94586.44;;;6.73;37.03
71107;BME280;58763;47.982;11.516;2023-04-04T13:00:52;94585.13;;;6.76;37.06
71107;BME280;58763;47.982;11.516;2023-04-04T13:03:23;94583.47;;;6.48;36.14
71107;BME280;58763;47.982;11.516;2023-04-04T13:05:49;94582.03;;;6.02;36.75
71107;BME280;58763;47.982;11.516;2023-04-04T13:08:17;94582.88;;;6.03;38.32
71107;BME280;58763;47.982;11.516;2023-04-04T13:10:59;94573.53;;;6.27;37.90
71107;BME280;58763;47.982;11.516;2023-04-04T13:13:38;94576.34;;;6.59;37.93
71107;BME280;58763;47.982;11.516;2023-04-04T13:16:05;94559.03;;;6.71;37.86
71107;BME280;58763;47.982;11.516;2023-04-04T13:18:34;94571.97;;;6.31;38.52